createdAt,value
2018-12-04T00:00:36.047Z,8.00
2018-12-04T00:05:39.633Z,8.00
2018-12-04T00:10:43.234Z,8.00
2018-12-04T00:15:46.755Z,8.00
2018-12-04T00:20:50.246Z,7.90
2018-12-04T00:25:53.888Z,7.90
2018-12-04T00:30:57.377Z,7.90
2018-12-04T00:36:00.862Z,7.90
2018-12-04T00:41:04.379Z,7.90
2018-12-04T00:46:07.951Z,7.90
2018-12-04T00:51:11.640Z,8.00
2018-12-04T00:56:15.150Z,7.90
2018-12-04T01:01:18.608Z,8.00
2018-12-04T01:06:22.382Z,8.00
2018-12-04T01:11:25.913Z,8.00
2018-12-04T01:16:29.516Z,7.90
2018-12-04T01:21:33.115Z,7.90
2018-12-04T01:26:36.896Z,7.90
2018-12-04T01:31:40.576Z,7.90
2018-12-04T01:36:44.259Z,8.00
2018-12-04T01:41:48.109Z,8.00
2018-12-04T01:46:51.810Z,8.00
2018-12-04T01:51:55.543Z,8.00
2018-12-04T01:56:59.023Z,8.00
2018-12-04T02:02:02.535Z,7.90
2018-12-04T02:07:05.955Z,7.90
2018-12-04T02:12:09.423Z,7.80
2018-12-04T02:17:13.986Z,7.80
2018-12-04T02:22:17.393Z,7.70
2018-12-04T02:27:21.036Z,7.70
2018-12-04T02:32:24.577Z,7.60
2018-12-04T02:37:28.238Z,7.60
2018-12-04T02:42:32.029Z,7.60
2018-12-04T02:47:35.623Z,7.60
2018-12-04T02:52:39.515Z,7.50
2018-12-04T02:57:43.040Z,7.60
2018-12-04T03:02:46.768Z,7.60
2018-12-04T03:07:50.356Z,7.60
2018-12-04T03:12:54.176Z,7.60
2018-12-04T03:17:57.761Z,7.60
2018-12-04T03:23:01.380Z,7.60
2018-12-04T03:28:05.021Z,7.50
2018-12-04T03:33:10.628Z,7.50
2018-12-04T03:38:14.201Z,7.50
2018-12-04T03:43:17.978Z,7.50
2018-12-04T03:48:21.450Z,7.40
2018-12-04T03:53:25.541Z,7.40
2018-12-04T03:58:29.077Z,7.40
2018-12-04T04:03:32.631Z,7.40
2018-12-04T04:08:36.190Z,7.40
2018-12-04T04:13:39.740Z,7.50
2018-12-04T04:18:43.197Z,7.50
2018-12-04T04:23:47.888Z,7.50
2018-12-04T04:28:51.492Z,7.50
2018-12-04T04:33:55.259Z,7.40
2018-12-04T04:38:59.066Z,7.40
2018-12-04T04:44:02.693Z,7.30
2018-12-04T04:49:06.288Z,7.20
2018-12-04T04:54:09.733Z,7.10
2018-12-04T04:59:13.333Z,7.10
2018-12-04T05:04:16.876Z,7.10
2018-12-04T05:09:20.527Z,7.00
2018-12-04T05:14:24.195Z,6.90
2018-12-04T05:19:27.826Z,6.90
2018-12-04T05:24:31.332Z,6.80
2018-12-04T05:29:34.878Z,6.70
2018-12-04T05:34:38.516Z,6.60
2018-12-04T05:39:41.979Z,6.60
2018-12-04T05:44:45.682Z,6.60
2018-12-04T05:49:49.287Z,6.60
2018-12-04T05:54:53.442Z,6.60
2018-12-04T05:59:56.903Z,6.60
2018-12-04T06:05:00.483Z,6.60
2018-12-04T06:10:05.187Z,6.60
2018-12-04T06:15:08.986Z,6.60
2018-12-04T06:20:12.683Z,6.60
2018-12-04T06:25:16.256Z,6.60
2018-12-04T06:30:19.743Z,6.60
2018-12-04T06:35:23.612Z,6.60
2018-12-04T06:40:27.177Z,6.60
2018-12-04T06:45:30.694Z,6.70
2018-12-04T06:50:34.356Z,6.70
2018-12-04T06:55:38.074Z,6.60
2018-12-04T07:00:41.704Z,6.70
2018-12-04T07:11:00.723Z,6.60
2018-12-04T07:16:04.583Z,6.60
2018-12-04T07:21:09.372Z,6.50
2018-12-04T07:26:12.850Z,6.40
2018-12-04T07:31:16.780Z,6.30
2018-12-04T07:36:20.350Z,6.30
2018-12-04T07:41:23.968Z,6.20
2018-12-04T07:46:27.796Z,6.20
2018-12-04T07:51:31.273Z,6.20
2018-12-04T08:01:48.338Z,6.20
2018-12-04T08:06:51.958Z,6.30
2018-12-04T08:11:55.589Z,6.40
2018-12-04T08:16:59.392Z,6.40
2018-12-04T08:22:03.163Z,6.50
2018-12-04T08:27:07.179Z,6.40
2018-12-04T08:32:10.820Z,6.40
2018-12-04T08:37:15.282Z,6.30
2018-12-04T08:42:19.005Z,6.20
2018-12-04T08:47:22.583Z,6.30
2018-12-04T08:52:26.135Z,6.30
2018-12-04T08:57:29.614Z,6.40
2018-12-04T09:02:33.315Z,6.40
2018-12-04T09:07:36.799Z,6.60
2018-12-04T09:12:40.338Z,6.70
2018-12-04T09:17:43.798Z,6.70
2018-12-04T09:22:47.602Z,6.80
2018-12-04T09:27:51.224Z,7.00
2018-12-04T09:32:54.843Z,7.10
2018-12-04T09:37:58.430Z,7.20
2018-12-04T09:43:04.269Z,7.20
2018-12-04T09:48:07.678Z,7.10
2018-12-04T09:53:11.222Z,7.20
2018-12-04T09:58:14.907Z,7.30
2018-12-04T10:03:18.655Z,7.40
2018-12-04T10:08:22.362Z,7.60
2018-12-04T10:13:26.299Z,7.70
2018-12-04T10:18:30.184Z,8.00
2018-12-04T10:23:34.377Z,7.90
2018-12-04T10:28:37.891Z,7.90
2018-12-04T10:33:41.460Z,7.70
2018-12-04T10:38:45.086Z,7.60
2018-12-04T10:43:48.670Z,7.60
2018-12-04T10:48:53.161Z,7.80
2018-12-04T10:53:56.657Z,8.00
2018-12-04T10:59:00.416Z,7.70
2018-12-04T11:04:04.378Z,7.70
2018-12-04T11:09:09.307Z,7.50
2018-12-04T11:14:13.902Z,6.90
2018-12-04T11:19:17.524Z,6.20
2018-12-04T11:24:21.346Z,5.70
2018-12-04T11:29:24.954Z,5.70
2018-12-04T11:34:28.654Z,5.70
2018-12-04T11:39:32.113Z,5.70
2018-12-04T11:44:35.783Z,5.80
2018-12-04T11:49:39.325Z,6.00
2018-12-04T11:54:43.517Z,6.20
2018-12-04T11:59:47.158Z,6.20
2018-12-04T12:04:50.823Z,6.30
2018-12-04T12:09:56.414Z,6.30
2018-12-04T12:14:59.956Z,6.30
2018-12-04T12:20:04.648Z,6.20
2018-12-04T12:25:09.966Z,6.30
2018-12-04T12:30:14.395Z,6.40
2018-12-04T12:35:18.196Z,6.50
2018-12-04T12:40:21.884Z,6.70
2018-12-04T12:45:25.675Z,6.80
2018-12-04T12:50:29.173Z,6.90
2018-12-04T12:55:32.695Z,7.10
2018-12-04T13:00:36.429Z,7.20
2018-12-04T13:05:39.892Z,7.30
2018-12-04T13:10:43.555Z,7.30
2018-12-04T13:15:47.316Z,7.40
2018-12-04T13:20:50.753Z,7.40
2018-12-04T13:25:54.262Z,7.40
2018-12-04T13:30:57.976Z,7.50
2018-12-04T13:36:01.514Z,7.50
2018-12-04T13:41:05.246Z,7.50
2018-12-04T13:46:09.171Z,7.50
2018-12-04T13:51:12.571Z,7.50
2018-12-04T13:56:16.137Z,7.40
2018-12-04T14:01:19.816Z,7.40
2018-12-04T14:06:23.484Z,7.40
2018-12-04T14:11:27.470Z,7.40
2018-12-04T14:16:31.037Z,7.30
2018-12-04T14:21:34.625Z,7.30
2018-12-04T14:26:38.225Z,7.20
2018-12-04T14:31:41.770Z,7.20
2018-12-04T14:36:45.737Z,7.20
2018-12-04T14:41:49.650Z,7.10
2018-12-04T14:46:53.307Z,7.10
2018-12-04T14:51:56.855Z,6.90
2018-12-04T14:57:01.392Z,6.90
2018-12-04T15:02:05.275Z,6.80
2018-12-04T15:07:17.142Z,6.80
2018-12-04T15:12:20.643Z,6.80
2018-12-04T15:17:24.231Z,6.70
2018-12-04T15:22:28.768Z,6.60
2018-12-04T15:27:32.395Z,6.60
2018-12-04T15:32:36.118Z,6.60
2018-12-04T15:37:40.048Z,6.50
2018-12-04T15:42:43.780Z,6.50
2018-12-04T15:47:47.742Z,6.40
2018-12-04T15:52:51.239Z,6.50
2018-12-04T15:57:54.767Z,6.50
2018-12-04T16:02:58.377Z,6.60
2018-12-04T16:08:01.867Z,6.40
2018-12-04T16:13:05.539Z,6.30
2018-12-04T16:18:09.062Z,6.30
2018-12-04T16:23:12.892Z,6.20
2018-12-04T16:28:17.486Z,6.20
2018-12-04T16:33:21.396Z,6.20
2018-12-04T16:38:25.038Z,6.20
2018-12-04T16:43:29.323Z,6.20
2018-12-04T16:48:33.135Z,6.50
2018-12-04T16:53:36.914Z,6.20
2018-12-04T16:58:40.608Z,6.10
2018-12-04T17:03:44.257Z,6.00
2018-12-04T17:08:47.826Z,6.00
2018-12-04T17:13:51.445Z,5.90
2018-12-04T17:18:55.061Z,5.90
2018-12-04T17:23:58.568Z,5.80
2018-12-04T17:29:02.095Z,5.80
2018-12-04T17:34:05.826Z,5.70
2018-12-04T17:39:09.400Z,5.70
2018-12-04T17:44:15.242Z,5.70
2018-12-04T17:49:19.870Z,5.60
2018-12-04T17:54:23.916Z,5.60
2018-12-04T17:59:27.876Z,5.60
2018-12-04T18:04:31.476Z,5.50
2018-12-04T18:09:36.931Z,5.50
2018-12-04T18:14:42.927Z,5.40
2018-12-04T18:19:46.500Z,5.50
2018-12-04T18:24:50.066Z,5.40
2018-12-04T18:29:54.951Z,5.40
2018-12-04T18:34:58.602Z,5.30
2018-12-04T18:40:02.358Z,5.30
2018-12-04T18:45:08.469Z,5.30
2018-12-04T18:50:12.571Z,5.20
2018-12-04T19:00:34.482Z,5.20
2018-12-04T19:05:38.549Z,5.20
2018-12-04T19:10:42.315Z,5.20
2018-12-04T19:15:46.235Z,5.10
2018-12-04T19:20:49.841Z,5.10
2018-12-04T19:25:53.302Z,5.00
2018-12-04T19:31:02.732Z,5.00
2018-12-04T19:36:02.610Z,5.00
2018-12-04T19:41:06.410Z,5.00
2018-12-04T19:46:10.028Z,5.00
2018-12-04T19:51:13.585Z,5.00
2018-12-04T19:56:17.069Z,5.00
2018-12-04T20:01:20.555Z,5.00
2018-12-04T20:06:24.332Z,5.00
2018-12-04T20:11:27.978Z,5.00
2018-12-04T20:16:31.493Z,5.00
2018-12-04T20:21:35.069Z,4.90
2018-12-04T20:26:38.553Z,4.90
2018-12-04T20:31:42.038Z,4.80
2018-12-04T20:36:45.623Z,4.80
2018-12-04T20:41:49.150Z,4.80
2018-12-04T20:46:52.686Z,4.80
2018-12-04T20:51:56.199Z,4.80
2018-12-04T20:56:59.660Z,4.80
2018-12-04T21:02:03.443Z,4.70
2018-12-04T21:07:06.930Z,4.70
2018-12-04T21:12:10.428Z,4.70
2018-12-04T21:17:15.131Z,4.70
2018-12-04T21:22:18.987Z,4.70
2018-12-04T21:27:27.943Z,4.70
2018-12-04T21:32:43.776Z,4.80
2018-12-04T21:37:53.104Z,4.80
2018-12-04T21:43:02.348Z,4.90
2018-12-04T21:48:09.513Z,4.90
2018-12-04T21:53:13.081Z,5.00
2018-12-04T21:58:16.875Z,5.00
2018-12-04T22:03:20.499Z,5.10
2018-12-04T22:08:24.231Z,5.10
2018-12-04T22:13:27.871Z,5.10
2018-12-04T22:18:31.623Z,5.30
2018-12-04T22:23:35.183Z,5.30
2018-12-04T22:28:38.739Z,5.50
2018-12-04T22:33:42.136Z,5.50
2018-12-04T22:38:45.731Z,5.40
2018-12-04T22:43:49.212Z,5.30
2018-12-04T22:48:52.704Z,5.30
2018-12-04T22:53:56.372Z,5.30
2018-12-04T22:59:00.023Z,5.30
2018-12-04T23:04:04.069Z,5.30
2018-12-04T23:09:10.111Z,5.20
2018-12-04T23:14:14.675Z,5.20
2018-12-04T23:19:18.434Z,5.10
2018-12-04T23:24:22.060Z,5.10
2018-12-04T23:29:25.833Z,5.20
2018-12-04T23:34:29.465Z,5.10
2018-12-04T23:39:33.163Z,5.00
2018-12-04T23:44:36.853Z,5.00
2018-12-04T23:49:40.356Z,5.00
2018-12-04T23:54:43.842Z,5.00
2018-12-04T23:59:47.439Z,5.00
